IVAO ES Tour IFR-A 2013 Etapa 2

IVAO ES Tour IFR-A 2013 Etapa 2

Granada ( LEGR ) – Fuerteventura ( GCFV )

Datos generales del vuelo
 Fecha 19-11-2013  Avión  B737-800 winglets
 Ruta MAR G5 VJF UL82 IBALU UN857 AMETA UA857 TOVRA UN857 VEDOD UA857 TERTO  Nivel de vuelo FL370
 Origen LEGR  Destino  GCFV
 Velocidad M0.792  Distancia 729Nm
 Distancia real  729Nm ETE 01:55
 ETA 18:15  FOB 03:30
 Hora salida 16:05Z Hora llegada 18:10Z
 Pax 152 TOW
 MTOW Fuel 10048Kg
 Fuel utilizado 5457Kg ZFW
Peso carga Peso pasaje
V1 132Knots Vr 142Knots
 V2 151Knots  Vref 146Knots

 

Datos LEGR

Metar: LEGR 191530Z 29009KT 9999 FEW050 15/04 Q1012
Salida: MAR1V

Datos GCFV

Metar: GCFV 191730Z 36014KT 320V020 9999 FEW025 21/12 Q1019
Llegada: TERTO2S
App: ILS Y RWY01R transición TENDA

 

 

 

Deja una respuesta